Time;durP1;ratioP1;P1;durP2;ratioP2;P2;SDS_P1;SDS_P2;PMS_P1;PMS_P2;Temp;Humidity;BMP_temperature;BMP_pressure;BME280_temperature;BME280_humidity;BME280_pressure;Samples;Min_cycle;Max_cycle;Signal;HPM_P1;HPM_P2
2021/06/27 00:01:59;;;;;;;9.82;8.95;;;17.60;99.90;;;;;;4954365;28;20294;-49
2021/06/27 00:04:27;;;;;;;9.45;8.65;;;17.60;99.90;;;;;;4954075;28;20226;-48
2021/06/27 00:06:55;;;;;;;11.35;10.35;;;17.60;99.90;;;;;;4954142;28;20239;-49
2021/06/27 00:09:24;;;;;;;11.50;10.48;;;17.60;99.90;;;;;;4954191;28;20375;-48
2021/06/27 00:11:52;;;;;;;11.20;10.15;;;17.50;99.90;;;;;;4954014;28;20219;-51
2021/06/27 00:14:20;;;;;;;10.15;8.80;;;17.50;99.90;;;;;;4954051;28;20516;-45
2021/06/27 00:16:52;;;;;;;10.73;9.80;;;17.50;99.90;;;;;;4953898;28;20212;-47
2021/06/27 00:19:21;;;;;;;11.65;10.57;;;17.50;99.90;;;;;;4953938;28;20237;-46
2021/06/27 00:21:49;;;;;;;9.82;9.02;;;17.40;99.90;;;;;;4953826;28;20242;-47
2021/06/27 00:24:17;;;;;;;11.40;10.27;;;17.40;99.90;;;;;;4954048;28;20257;-47
2021/06/27 00:26:47;;;;;;;11.00;9.93;;;17.40;99.90;;;;;;4953894;28;20229;-45
2021/06/27 00:29:14;;;;;;;10.93;9.02;;;17.40;99.90;;;;;;4953452;28;20211;-45
2021/06/27 00:31:42;;;;;;;11.13;10.00;;;17.40;99.90;;;;;;4953640;28;20305;-45
2021/06/27 00:34:10;;;;;;;10.40;9.35;;;17.40;99.90;;;;;;4953513;28;20584;-51
2021/06/27 00:36:38;;;;;;;11.32;10.32;;;17.30;99.90;;;;;;4954003;28;20308;-48
2021/06/27 00:39:07;;;;;;;9.82;8.93;;;17.30;99.90;;;;;;4953719;28;20238;-49
2021/06/27 00:41:35;;;;;;;9.85;8.90;;;17.30;99.90;;;;;;4953655;28;20211;-45
2021/06/27 00:44:04;;;;;;;9.07;8.27;;;17.20;99.90;;;;;;4953782;28;20195;-46
2021/06/27 00:46:33;;;;;;;8.77;7.88;;;17.20;99.90;;;;;;4953806;28;20239;-46
2021/06/27 00:49:01;;;;;;;9.02;8.13;;;17.10;99.90;;;;;;4953866;28;20214;-47
2021/06/27 00:51:29;;;;;;;8.68;7.88;;;17.10;99.90;;;;;;4953684;28;20782;-46
2021/06/27 00:53:57;;;;;;;8.50;7.70;;;17.10;99.90;;;;;;4953537;28;20566;-48
2021/06/27 00:56:25;;;;;;;9.52;8.23;;;17.10;99.90;;;;;;4953673;28;20211;-47
2021/06/27 00:58:53;;;;;;;8.45;7.75;;;17.00;99.90;;;;;;4953545;28;20239;-49
2021/06/27 01:01:22;;;;;;;9.02;8.23;;;17.00;99.90;;;;;;4953519;28;20227;-47
2021/06/27 01:03:50;;;;;;;9.20;8.40;;;17.00;99.90;;;;;;4953801;28;20309;-45
2021/06/27 01:06:18;;;;;;;9.55;8.63;;;17.00;99.90;;;;;;4954727;28;20218;-46
2021/06/27 01:08:46;;;;;;;8.98;8.00;;;17.00;99.90;;;;;;4957563;28;20254;-44
2021/06/27 01:11:14;;;;;;;9.35;8.45;;;17.00;99.90;;;;;;4957467;28;20698;-44
2021/06/27 01:13:44;;;;;;;8.80;7.97;;;17.00;99.90;;;;;;4957789;28;20211;-45
2021/06/27 01:16:12;;;;;;;8.95;8.23;;;17.00;99.90;;;;;;4957595;28;20218;-46
2021/06/27 01:18:41;;;;;;;9.70;8.18;;;17.10;99.90;;;;;;4957396;28;20250;-46
2021/06/27 01:21:13;;;;;;;9.80;9.00;;;17.00;99.90;;;;;;4957152;28;20211;-47
2021/06/27 01:23:41;;;;;;;9.77;8.95;;;17.10;99.90;;;;;;4957389;28;20294;-49
2021/06/27 01:26:09;;;;;;;9.38;8.63;;;17.10;99.90;;;;;;4957477;28;20311;-49
2021/06/27 01:28:36;;;;;;;10.65;9.68;;;17.00;99.90;;;;;;4957175;28;20286;-45
2021/06/27 01:31:06;;;;;;;9.38;8.48;;;17.00;99.90;;;;;;4957199;28;20221;-47
2021/06/27 01:33:35;;;;;;;9.50;8.60;;;16.90;99.90;;;;;;4957185;28;20239;-47
2021/06/27 01:36:04;;;;;;;9.73;8.80;;;16.90;99.90;;;;;;4957079;28;20247;-46
2021/06/27 01:38:35;;;;;;;9.88;9.07;;;16.80;99.90;;;;;;4957196;28;20246;-47
2021/06/27 01:41:05;;;;;;;9.65;8.77;;;16.80;99.90;;;;;;4956981;28;20608;-48
2021/06/27 01:43:33;;;;;;;11.30;10.20;;;16.70;99.90;;;;;;4956880;28;20215;-46
2021/06/27 01:46:02;;;;;;;9.35;8.32;;;16.70;99.90;;;;;;4956744;28;20306;-50
2021/06/27 01:48:31;;;;;;;9.68;8.70;;;16.70;99.90;;;;;;4956768;28;20355;-48
2021/06/27 01:51:01;;;;;;;9.25;8.45;;;16.70;99.90;;;;;;4956656;28;20215;-47
2021/06/27 01:53:31;;;;;;;8.77;8.07;;;16.70;99.90;;;;;;4956677;28;20242;-46
2021/06/27 01:56:07;;;;;;;9.90;9.00;;;16.70;99.90;;;;;;4956465;28;20250;-49
2021/06/27 01:58:37;;;;;;;9.05;8.15;;;16.70;99.90;;;;;;4956290;28;20279;-44
2021/06/27 02:01:07;;;;;;;9.07;8.30;;;16.70;99.90;;;;;;4957009;28;20715;-45
2021/06/27 02:03:36;;;;;;;8.88;8.18;;;16.70;99.90;;;;;;4956610;28;20250;-45
2021/06/27 02:06:05;;;;;;;9.30;8.48;;;16.70;99.90;;;;;;4956269;28;20215;-44
2021/06/27 02:08:34;;;;;;;8.43;7.72;;;16.70;99.90;;;;;;4956419;28;20298;-45
2021/06/27 02:11:05;;;;;;;8.98;8.27;;;16.70;99.90;;;;;;4956226;28;20221;-45
2021/06/27 02:13:34;;;;;;;9.90;9.02;;;16.70;99.90;;;;;;4956612;28;20302;-45
2021/06/27 02:16:02;;;;;;;10.35;9.27;;;16.70;99.90;;;;;;4956307;28;20211;-46
2021/06/27 02:18:32;;;;;;;9.52;8.63;;;16.70;99.90;;;;;;4955249;28;20228;-47
2021/06/27 02:21:03;;;;;;;8.88;8.18;;;16.70;99.90;;;;;;4956436;28;20310;-47
2021/06/27 02:23:31;;;;;;;8.73;8.02;;;16.70;99.90;;;;;;4956449;28;20306;-46
2021/06/27 02:25:59;;;;;;;8.38;7.57;;;16.70;99.90;;;;;;4956024;28;20243;-48
2021/06/27 02:28:29;;;;;;;8.65;7.90;;;16.70;99.90;;;;;;4956186;28;20303;-47
2021/06/27 02:30:58;;;;;;;8.85;8.05;;;16.70;99.90;;;;;;4956237;28;20225;-48
2021/06/27 02:33:26;;;;;;;9.38;8.20;;;16.60;99.90;;;;;;4956023;28;20226;-50
2021/06/27 02:35:54;;;;;;;9.75;8.93;;;16.70;99.90;;;;;;4956094;28;20636;-45
2021/06/27 02:38:23;;;;;;;9.70;8.90;;;16.70;99.90;;;;;;4955751;28;20671;-45
2021/06/27 02:40:51;;;;;;;9.55;8.75;;;16.70;99.90;;;;;;4955984;28;20314;-49
2021/06/27 02:43:19;;;;;;;10.20;9.30;;;16.70;99.90;;;;;;4956138;28;20215;-45
2021/06/27 02:45:49;;;;;;;10.75;8.68;;;16.60;99.90;;;;;;4956320;28;20214;-47
2021/06/27 02:48:17;;;;;;;8.65;7.80;;;16.60;99.90;;;;;;4955586;28;20336;-44
2021/06/27 02:50:46;;;;;;;8.52;7.82;;;16.60;99.90;;;;;;4955782;28;20224;-46
2021/06/27 02:53:14;;;;;;;9.50;8.55;;;16.60;99.90;;;;;;4955566;28;20211;-45
2021/06/27 02:55:42;;;;;;;9.43;8.52;;;16.60;99.90;;;;;;4955845;28;20299;-47
2021/06/27 02:58:10;;;;;;;9.15;8.32;;;16.50;99.90;;;;;;4955659;28;20325;-48
2021/06/27 03:00:38;;;;;;;9.75;8.90;;;16.50;99.90;;;;;;4955421;28;20726;-46
2021/06/27 03:03:08;;;;;;;8.73;7.93;;;16.50;99.90;;;;;;4955518;28;20274;-46
2021/06/27 03:05:36;;;;;;;9.95;9.15;;;16.40;99.90;;;;;;4955462;28;20303;-46
2021/06/27 03:08:04;;;;;;;10.52;9.52;;;16.40;99.90;;;;;;4955294;28;20543;-45
2021/06/27 03:10:32;;;;;;;9.63;8.60;;;16.30;99.90;;;;;;4955616;28;20243;-44
2021/06/27 03:13:00;;;;;;;9.65;8.73;;;16.30;99.90;;;;;;4955303;28;20299;-45
2021/06/27 03:15:29;;;;;;;10.40;9.05;;;16.30;99.90;;;;;;4955182;28;20212;-46
2021/06/27 03:17:57;;;;;;;9.75;8.95;;;16.40;99.90;;;;;;4955116;28;20309;-46
2021/06/27 03:20:26;;;;;;;9.30;8.50;;;16.40;99.90;;;;;;4955355;28;20238;-45
2021/06/27 03:22:54;;;;;;;11.65;10.23;;;16.40;99.90;;;;;;4955395;28;20211;-45
2021/06/27 03:25:25;;;;;;;9.20;8.40;;;16.40;99.90;;;;;;4955101;28;20302;-46
2021/06/27 03:27:53;;;;;;;10.40;9.50;;;16.40;99.90;;;;;;4955281;28;20235;-47
2021/06/27 03:30:22;;;;;;;10.90;9.80;;;16.40;99.90;;;;;;4954583;28;20295;-47
2021/06/27 03:32:50;;;;;;;10.23;9.32;;;16.40;99.90;;;;;;4954951;28;20230;-44
2021/06/27 03:35:18;;;;;;;10.95;9.85;;;16.40;99.90;;;;;;4954916;28;20247;-48
2021/06/27 03:37:53;;;;;;;11.10;10.10;;;16.40;99.90;;;;;;4954794;28;20247;-48
2021/06/27 03:40:21;;;;;;;10.85;9.85;;;16.40;99.90;;;;;;4954804;28;20227;-47
2021/06/27 03:42:50;;;;;;;11.35;10.45;;;16.40;99.90;;;;;;4955072;28;20301;-45
2021/06/27 03:45:17;;;;;;;12.73;10.20;;;16.40;99.90;;;;;;4954971;28;20306;-46
2021/06/27 03:47:46;;;;;;;11.32;10.32;;;16.40;99.90;;;;;;4954763;28;20306;-46
2021/06/27 03:50:17;;;;;;;10.30;9.40;;;16.50;99.90;;;;;;4954864;28;20214;-47
2021/06/27 03:52:46;;;;;;;10.93;10.02;;;16.50;99.90;;;;;;4954651;28;20215;-50
2021/06/27 03:55:16;;;;;;;11.60;10.45;;;16.60;99.90;;;;;;4954591;28;20239;-48
2021/06/27 03:57:44;;;;;;;11.40;10.40;;;16.60;99.90;;;;;;4954394;28;20211;-50
2021/06/27 04:00:12;;;;;;;11.02;10.00;;;16.60;99.90;;;;;;4954623;28;20597;-47
2021/06/27 04:02:41;;;;;;;11.07;10.07;;;16.70;99.90;;;;;;4954199;28;20222;-47
2021/06/27 04:05:10;;;;;;;10.25;9.43;;;16.70;99.90;;;;;;4954093;28;20246;-50
2021/06/27 04:07:39;;;;;;;10.65;8.85;;;16.80;99.90;;;;;;4954056;28;20298;-52
2021/06/27 04:10:10;;;;;;;9.85;8.98;;;16.80;99.90;;;;;;4954166;28;20207;-47
2021/06/27 04:12:38;;;;;;;10.38;9.43;;;17.00;99.90;;;;;;4954348;28;20265;-47
2021/06/27 04:15:08;;;;;;;12.32;9.15;;;17.10;99.90;;;;;;4954227;28;20683;-48
2021/06/27 04:17:36;;;;;;;9.80;9.00;;;17.20;99.90;;;;;;4954247;28;20258;-49
2021/06/27 04:20:06;;;;;;;10.80;9.05;;;17.30;99.90;;;;;;4954093;28;20227;-45
2021/06/27 04:22:34;;;;;;;10.43;9.43;;;17.40;99.90;;;;;;4953888;28;20239;-44
2021/06/27 04:25:02;;;;;;;9.25;8.35;;;17.60;99.90;;;;;;4954554;28;20303;-46
2021/06/27 04:27:31;;;;;;;9.50;8.50;;;17.80;99.90;;;;;;4954207;28;20310;-49
2021/06/27 04:30:00;;;;;;;11.38;10.35;;;17.90;99.90;;;;;;4953879;28;20298;-47
2021/06/27 04:32:28;;;;;;;9.98;9.18;;;18.00;99.90;;;;;;4953970;28;20211;-49
2021/06/27 04:34:56;;;;;;;9.77;8.77;;;18.00;99.90;;;;;;4953850;28;20355;-49
2021/06/27 04:37:24;;;;;;;9.32;8.43;;;18.10;99.90;;;;;;4953865;28;20311;-48
2021/06/27 04:39:52;;;;;;;8.80;8.00;;;18.30;99.90;;;;;;4954078;28;20242;-49
2021/06/27 04:42:20;;;;;;;11.73;8.63;;;18.40;99.90;;;;;;4953269;28;20675;-49
2021/06/27 04:44:49;;;;;;;9.70;8.00;;;18.50;99.90;;;;;;4953988;28;20247;-48
2021/06/27 04:47:17;;;;;;;9.68;8.85;;;18.60;99.90;;;;;;4954005;28;20242;-48
2021/06/27 04:49:45;;;;;;;8.95;8.13;;;18.80;99.90;;;;;;4953572;28;20297;-48
2021/06/27 04:52:13;;;;;;;9.85;8.85;;;18.80;99.90;;;;;;4953800;28;20215;-49
2021/06/27 04:54:41;;;;;;;9.05;8.10;;;18.90;99.90;;;;;;4953928;28;20311;-51
2021/06/27 04:57:09;;;;;;;9.27;8.50;;;18.90;99.90;;;;;;4954131;28;20247;-48
2021/06/27 04:59:37;;;;;;;9.50;8.50;;;19.00;99.90;;;;;;4953731;28;20245;-47
2021/06/27 05:02:06;;;;;;;11.27;9.68;;;19.00;99.90;;;;;;4953815;28;20685;-46
2021/06/27 05:04:34;;;;;;;9.10;8.32;;;18.90;99.90;;;;;;4953637;28;20207;-45
2021/06/27 05:07:02;;;;;;;8.98;8.18;;;18.90;99.90;;;;;;4953744;28;20251;-47
2021/06/27 05:09:30;;;;;;;10.57;9.15;;;18.80;99.90;;;;;;4953607;28;20266;-46
2021/06/27 05:11:58;;;;;;;10.00;9.00;;;18.80;99.90;;;;;;4953415;28;20306;-46
2021/06/27 05:14:26;;;;;;;9.77;9.02;;;18.70;99.90;;;;;;4953493;28;20262;-45
2021/06/27 05:16:54;;;;;;;9.55;8.75;;;18.70;99.90;;;;;;4953532;28;20246;-48
2021/06/27 05:19:24;;;;;;;9.68;8.88;;;18.60;99.90;;;;;;4953630;28;20258;-50
2021/06/27 05:21:52;;;;;;;10.63;9.73;;;18.70;99.90;;;;;;4953261;28;20235;-46
2021/06/27 05:24:20;;;;;;;9.32;8.52;;;18.70;99.90;;;;;;4953299;28;20212;-46
2021/06/27 05:26:48;;;;;;;10.82;9.45;;;18.80;99.90;;;;;;4953563;28;20213;-45
2021/06/27 05:29:16;;;;;;;9.15;8.45;;;18.80;99.90;;;;;;4953682;28;20249;-47
2021/06/27 05:31:44;;;;;;;9.25;8.35;;;18.80;99.90;;;;;;4953294;28;20208;-48
2021/06/27 05:34:12;;;;;;;9.13;8.32;;;18.90;99.90;;;;;;4954036;28;20216;-46
2021/06/27 05:36:41;;;;;;;10.57;9.57;;;19.00;99.90;;;;;;4953982;28;20619;-48
2021/06/27 05:39:11;;;;;;;9.60;8.70;;;19.00;99.90;;;;;;4953212;28;20294;-49
2021/06/27 05:41:40;;;;;;;9.93;8.93;;;19.10;99.90;;;;;;4953035;28;20314;-49
2021/06/27 05:44:08;;;;;;;8.52;7.65;;;19.20;99.90;;;;;;4953438;28;20310;-47
2021/06/27 05:46:36;;;;;;;8.77;8.07;;;19.20;99.90;;;;;;4953169;28;20354;-47
2021/06/27 05:49:05;;;;;;;8.50;7.80;;;19.30;99.90;;;;;;4953397;28;20211;-51
2021/06/27 05:51:36;;;;;;;8.70;8.00;;;19.50;99.90;;;;;;4952943;28;20255;-47
2021/06/27 05:54:06;;;;;;;8.88;8.07;;;19.70;99.90;;;;;;4955153;28;20267;-49
2021/06/27 05:56:34;;;;;;;7.43;6.72;;;19.80;99.90;;;;;;4956555;28;20243;-47
2021/06/27 05:59:03;;;;;;;8.07;7.43;;;20.00;99.90;;;;;;4956618;28;20243;-50
2021/06/27 06:01:31;;;;;;;7.32;6.72;;;20.10;99.90;;;;;;4956636;28;20258;-44
2021/06/27 06:03:59;;;;;;;7.32;6.72;;;20.30;99.90;;;;;;4956853;28;20299;-45
2021/06/27 06:06:27;;;;;;;7.53;6.93;;;20.40;99.90;;;;;;4956551;28;20229;-47
2021/06/27 06:08:55;;;;;;;7.28;6.68;;;20.60;99.90;;;;;;4956442;28;20318;-46
2021/06/27 06:11:26;;;;;;;6.90;6.22;;;20.70;99.90;;;;;;4956494;28;20298;-51
2021/06/27 06:13:55;;;;;;;6.78;6.18;;;20.70;99.90;;;;;;4956358;28;20759;-51
2021/06/27 06:16:24;;;;;;;6.55;5.95;;;20.80;99.90;;;;;;4956663;28;20215;-46
2021/06/27 06:18:52;;;;;;;7.05;6.45;;;20.90;99.90;;;;;;4955830;28;20730;-46
2021/06/27 06:21:20;;;;;;;7.68;6.80;;;20.90;99.90;;;;;;4956117;28;20318;-49
2021/06/27 06:23:48;;;;;;;6.63;6.13;;;21.00;99.90;;;;;;4955697;28;20497;-56
2021/06/27 06:26:16;;;;;;;7.40;6.80;;;21.00;99.90;;;;;;4955924;28;20291;-52
2021/06/27 06:28:45;;;;;;;7.57;6.88;;;21.00;99.90;;;;;;4955608;28;20306;-47
2021/06/27 06:31:14;;;;;;;7.60;7.00;;;21.00;99.90;;;;;;4955572;28;20231;-52
2021/06/27 06:33:42;;;;;;;7.70;7.10;;;21.00;99.90;;;;;;4955475;28;20302;-50
2021/06/27 06:36:10;;;;;;;7.90;7.20;;;21.00;99.90;;;;;;4955611;28;20191;-51
2021/06/27 06:38:38;;;;;;;8.55;7.32;;;21.10;99.90;;;;;;4955426;28;20282;-49
2021/06/27 06:41:06;;;;;;;10.25;8.38;;;21.10;99.90;;;;;;4955406;28;20286;-49
2021/06/27 06:43:34;;;;;;;8.32;7.53;;;21.00;99.90;;;;;;4955165;28;20303;-48
2021/06/27 06:46:03;;;;;;;7.63;6.85;;;21.00;99.90;;;;;;4955245;28;20693;-47
2021/06/27 06:48:31;;;;;;;6.88;6.38;;;21.00;99.90;;;;;;4955365;28;20578;-53
2021/06/27 06:50:59;;;;;;;6.35;5.85;;;21.00;99.90;;;;;;4955414;28;20301;-51
2021/06/27 06:53:27;;;;;;;7.93;7.20;;;21.00;99.90;;;;;;4955164;28;20389;-48
2021/06/27 06:55:57;;;;;;;6.75;6.25;;;21.00;99.90;;;;;;4955171;28;20243;-52
2021/06/27 06:58:28;;;;;;;7.45;6.78;;;21.10;99.90;;;;;;4954961;28;20278;-47
2021/06/27 07:00:56;;;;;;;9.07;6.55;;;21.10;99.90;;;;;;4954673;28;20650;-48
2021/06/27 07:03:26;;;;;;;7.15;6.55;;;21.10;99.90;;;;;;4954829;28;20633;-48
2021/06/27 07:05:54;;;;;;;6.68;6.07;;;21.10;99.90;;;;;;4954914;28;20222;-51
2021/06/27 07:08:22;;;;;;;6.13;5.63;;;21.10;99.90;;;;;;4954849;28;20211;-52
2021/06/27 07:10:50;;;;;;;6.97;6.43;;;21.10;99.90;;;;;;4954755;28;20218;-49
2021/06/27 07:13:18;;;;;;;5.03;4.60;;;21.20;99.90;;;;;;4954833;28;20254;-51
2021/06/27 07:15:46;;;;;;;5.90;5.40;;;21.30;99.90;;;;;;4954681;28;20592;-51
2021/06/27 07:18:19;;;;;;;6.28;5.68;;;21.30;99.90;;;;;;4954777;28;20294;-49
2021/06/27 07:20:48;;;;;;;4.72;4.32;;;21.50;99.90;;;;;;4954654;28;20577;-48
2021/06/27 07:23:16;;;;;;;4.85;4.45;;;21.60;99.90;;;;;;4954598;28;20592;-49
2021/06/27 07:25:44;;;;;;;5.55;5.05;;;21.70;99.90;;;;;;4954687;28;20315;-52
2021/06/27 07:28:12;;;;;;;6.60;4.43;;;21.80;99.90;;;;;;4954505;28;20266;-51
2021/06/27 07:30:40;;;;;;;4.45;4.03;;;21.80;99.90;;;;;;4954463;28;20247;-50
2021/06/27 07:33:11;;;;;;;5.40;4.85;;;21.90;99.90;;;;;;4954422;28;20699;-46
2021/06/27 07:35:40;;;;;;;5.40;4.80;;;22.00;99.90;;;;;;4955197;28;20302;-51
2021/06/27 07:38:09;;;;;;;5.70;5.25;;;22.10;99.90;;;;;;4954540;28;20274;-53
2021/06/27 07:40:38;;;;;;;6.25;5.65;;;22.10;99.90;;;;;;4954353;28;20239;-50
2021/06/27 07:43:08;;;;;;;4.30;3.90;;;22.20;99.90;;;;;;4954435;28;20322;-47
2021/06/27 07:45:36;;;;;;;5.50;4.55;;;22.20;99.90;;;;;;4953793;28;20303;-48
2021/06/27 07:48:05;;;;;;;5.95;5.35;;;22.30;99.90;;;;;;4954269;28;20211;-51
2021/06/27 07:50:33;;;;;;;5.72;4.97;;;22.30;99.90;;;;;;4954305;28;20211;-49
2021/06/27 07:53:01;;;;;;;4.20;3.90;;;22.40;99.90;;;;;;4954151;28;20216;-51
2021/06/27 07:55:31;;;;;;;4.22;3.80;;;22.50;99.90;;;;;;4954768;28;20727;-47
2021/06/27 07:57:59;;;;;;;4.00;3.70;;;22.60;99.90;;;;;;4954024;28;20243;-51
2021/06/27 08:00:29;;;;;;;3.47;2.55;;;22.60;99.90;;;;;;4953923;28;20298;-51
2021/06/27 08:02:58;;;;;;;2.92;2.72;;;22.70;99.90;;;;;;4953918;28;20342;-47
2021/06/27 08:05:27;;;;;;;3.38;3.05;;;22.70;99.90;;;;;;4953801;28;20298;-46
2021/06/27 08:07:55;;;;;;;3.97;2.97;;;22.70;99.90;;;;;;4954010;28;20259;-46
2021/06/27 08:10:26;;;;;;;2.83;2.63;;;22.80;99.90;;;;;;4954178;28;20298;-50
2021/06/27 08:12:56;;;;;;;2.60;2.40;;;22.80;99.90;;;;;;4953762;28;20711;-48
2021/06/27 08:15:24;;;;;;;2.88;2.67;;;22.90;99.90;;;;;;4953292;28;20215;-48
2021/06/27 08:17:53;;;;;;;2.40;2.20;;;22.90;99.60;;;;;;4953667;28;20770;-51
2021/06/27 08:20:22;;;;;;;3.88;2.75;;;23.00;99.30;;;;;;4953781;28;20294;-51
2021/06/27 08:22:52;;;;;;;3.85;2.97;;;23.10;99.10;;;;;;4953691;28;20231;-51
2021/06/27 08:25:20;;;;;;;3.33;2.80;;;23.20;98.80;;;;;;4953805;28;20305;-49
2021/06/27 08:27:49;;;;;;;6.22;2.85;;;23.30;98.70;;;;;;4953545;28;20243;-49
2021/06/27 08:30:22;;;;;;;2.95;2.63;;;23.40;98.40;;;;;;4953416;28;20686;-49
2021/06/27 08:32:50;;;;;;;5.18;4.68;;;23.40;98.20;;;;;;4953892;28;20392;-52
2021/06/27 08:35:20;;;;;;;3.55;3.25;;;23.50;98.10;;;;;;4953721;28;20211;-52
2021/06/27 08:37:50;;;;;;;3.35;3.05;;;23.50;98.10;;;;;;4953546;28;20326;-50
2021/06/27 08:40:20;;;;;;;3.92;2.70;;;23.60;98.00;;;;;;4953000;28;20297;-49
2021/06/27 08:42:48;;;;;;;2.72;2.53;;;23.70;97.90;;;;;;4953255;28;20266;-48
2021/06/27 08:45:18;;;;;;;2.78;2.58;;;23.70;97.70;;;;;;4953395;28;20215;-49
2021/06/27 08:47:52;;;;;;;2.95;2.75;;;23.70;97.60;;;;;;4953427;28;20670;-52
2021/06/27 08:50:21;;;;;;;3.75;3.15;;;23.70;97.50;;;;;;4953401;28;20385;-50
2021/06/27 08:52:49;;;;;;;3.25;2.95;;;23.70;97.60;;;;;;4953123;28;20235;-51
2021/06/27 08:55:17;;;;;;;4.95;2.50;;;23.80;97.50;;;;;;4953292;28;20286;-49
2021/06/27 08:57:45;;;;;;;3.63;3.28;;;23.90;97.50;;;;;;4953206;28;20423;-50
2021/06/27 09:00:14;;;;;;;2.47;2.30;;;23.90;97.30;;;;;;4953586;28;20211;-49
2021/06/27 09:02:42;;;;;;;2.58;2.15;;;24.00;97.20;;;;;;4953872;28;20243;-48
2021/06/27 09:05:12;;;;;;;2.83;2.42;;;24.00;97.10;;;;;;4953866;28;20592;-46
2021/06/27 09:07:40;;;;;;;2.55;2.35;;;24.10;97.00;;;;;;4953452;28;20214;-52
2021/06/27 09:10:22;;;;;;;2.92;2.70;;;24.10;96.80;;;;;;4953604;28;20215;-52
2021/06/27 09:12:52;;;;;;;3.00;2.53;;;24.20;96.60;;;;;;4953585;28;20306;-44
2021/06/27 09:15:37;;;;;;;2.58;2.38;;;24.30;96.60;;;;;;4953990;28;20212;-51
2021/06/27 09:18:08;;;;;;;2.53;2.20;;;24.30;96.20;;;;;;4953235;28;20211;-50
2021/06/27 09:20:38;;;;;;;2.70;2.50;;;24.40;96.30;;;;;;4953299;28;20253;-50
2021/06/27 09:23:08;;;;;;;5.03;2.70;;;24.40;96.20;;;;;;4953300;28;20318;-51
2021/06/27 09:25:38;;;;;;;2.72;2.53;;;24.50;96.00;;;;;;4953511;28;20211;-48
2021/06/27 09:28:12;;;;;;;3.08;2.78;;;24.50;95.70;;;;;;4955141;28;20235;-50
2021/06/27 09:30:42;;;;;;;2.80;2.60;;;24.60;95.60;;;;;;4956554;28;20251;-53
2021/06/27 09:33:11;;;;;;;2.97;2.75;;;24.70;95.50;;;;;;4956728;28;20302;-50
2021/06/27 09:35:55;;;;;;;2.90;2.70;;;24.80;95.40;;;;;;4956536;28;20742;-48
2021/06/27 09:38:27;;;;;;;2.65;2.35;;;24.80;95.20;;;;;;4956862;28;20258;-49
2021/06/27 09:40:58;;;;;;;2.70;2.50;;;24.90;95.20;;;;;;4956798;28;20234;-50
2021/06/27 09:43:27;;;;;;;3.08;2.88;;;24.90;95.00;;;;;;4957038;28;20235;-47
2021/06/27 09:45:58;;;;;;;3.10;2.85;;;24.90;94.90;;;;;;4956872;28;20403;-48
2021/06/27 09:48:27;;;;;;;2.72;2.53;;;24.90;94.90;;;;;;4956655;28;20208;-51
2021/06/27 09:50:58;;;;;;;3.80;2.40;;;25.00;94.90;;;;;;4956316;28;20786;-51
2021/06/27 09:53:41;;;;;;;2.58;2.40;;;25.00;94.80;;;;;;4956484;28;20754;-52
2021/06/27 09:56:10;;;;;;;2.72;2.53;;;25.00;94.60;;;;;;4956277;28;20743;-51
2021/06/27 09:58:39;;;;;;;2.58;2.38;;;25.00;94.60;;;;;;4956293;28;20307;-49
2021/06/27 10:01:22;;;;;;;2.55;2.35;;;25.10;94.60;;;;;;4956434;28;20258;-51
2021/06/27 10:03:57;;;;;;;3.40;3.20;;;25.20;94.70;;;;;;4956634;28;20262;-49
2021/06/27 10:06:28;;;;;;;3.85;2.70;;;25.20;94.40;;;;;;4956183;28;20239;-47
2021/06/27 10:09:08;;;;;;;3.00;2.80;;;25.20;94.10;;;;;;4956360;28;20298;-53
2021/06/27 10:11:36;;;;;;;3.05;2.85;;;25.20;94.30;;;;;;4955960;28;20290;-50
2021/06/27 10:14:10;;;;;;;2.80;2.60;;;25.20;94.20;;;;;;4956109;28;20571;-52
2021/06/27 10:16:39;;;;;;;3.08;2.70;;;25.20;94.00;;;;;;4956756;28;20737;-51
2021/06/27 10:19:07;;;;;;;2.45;2.25;;;25.30;93.90;;;;;;4956267;28;20223;-50
2021/06/27 10:21:37;;;;;;;2.55;2.35;;;25.30;94.00;;;;;;4955987;28;20215;-48
2021/06/27 10:24:06;;;;;;;3.08;2.30;;;25.30;93.60;;;;;;4956374;28;20231;-46
2021/06/27 10:26:34;;;;;;;2.63;2.42;;;25.40;93.70;;;;;;4957904;28;20208;-46
2021/06/27 10:29:02;;;;;;;2.90;2.70;;;25.40;93.60;;;;;;4956508;28;20590;-48
2021/06/27 10:31:31;;;;;;;2.95;2.47;;;25.40;93.50;;;;;;4955927;28;20222;-48
2021/06/27 10:33:59;;;;;;;2.47;2.28;;;25.40;93.40;;;;;;4956154;28;20219;-47
2021/06/27 10:36:30;;;;;;;3.00;2.80;;;25.50;93.30;;;;;;4955904;28;20234;-48
2021/06/27 10:39:02;;;;;;;2.92;2.67;;;25.50;93.10;;;;;;4954687;28;20215;-49
2021/06/27 10:41:50;;;;;;;2.53;2.33;;;25.60;93.20;;;;;;4955669;28;20310;-51
2021/06/27 10:44:19;;;;;;;2.40;2.20;;;25.60;92.70;;;;;;4955386;28;20322;-47
2021/06/27 10:46:48;;;;;;;2.92;2.72;;;25.70;93.00;;;;;;4955565;28;20231;-49
2021/06/27 10:49:56;;;;;;;3.20;2.92;;;25.80;92.60;;;;;;4955602;28;20216;-48
2021/06/27 10:52:24;;;;;;;2.90;2.70;;;25.90;92.70;;;;;;4953595;28;20274;-48
2021/06/27 10:55:16;;;;;;;3.08;2.80;;;25.90;92.60;;;;;;4955372;28;20310;-50
2021/06/27 10:58:06;;;;;;;2.53;2.33;;;26.00;92.50;;;;;;4955186;28;20645;-46
2021/06/27 11:01:06;;;;;;;2.45;2.22;;;26.00;92.10;;;;;;4953583;28;20307;-49
2021/06/27 11:03:37;;;;;;;1.80;1.70;;;26.00;91.80;;;;;;4955331;28;20283;-49
2021/06/27 11:06:07;;;;;;;2.20;2.10;;;26.00;91.70;;;;;;4954977;28;20262;-51
2021/06/27 11:08:40;;;;;;;2.78;2.58;;;26.00;91.40;;;;;;4956849;28;20214;-51
2021/06/27 11:11:13;;;;;;;2.20;2.10;;;26.10;91.20;;;;;;4955244;28;20626;-49
2021/06/27 11:13:42;;;;;;;1.92;1.83;;;26.10;90.90;;;;;;4955374;28;20290;-51
2021/06/27 11:16:12;;;;;;;2.97;2.78;;;26.10;91.00;;;;;;4955224;28;20298;-50
2021/06/27 11:18:43;;;;;;;2.15;2.05;;;26.10;90.90;;;;;;4955419;28;20211;-49
2021/06/27 11:21:22;;;;;;;2.15;1.92;;;26.20;90.90;;;;;;4955254;28;20223;-48
2021/06/27 11:23:59;;;;;;;2.45;2.13;;;26.30;90.70;;;;;;4954936;28;20777;-48
2021/06/27 11:27:01;;;;;;;1.90;1.80;;;26.30;90.60;;;;;;4954921;28;20298;-48
2021/06/27 11:29:49;;;;;;;1.85;1.75;;;26.40;90.20;;;;;;4954723;28;20251;-48
2021/06/27 11:32:40;;;;;;;1.90;1.80;;;26.40;90.20;;;;;;4954589;28;20309;-50
2021/06/27 11:35:08;;;;;;;2.13;1.92;;;26.50;89.50;;;;;;4949805;28;20231;-51
2021/06/27 11:37:45;;;;;;;1.70;1.50;;;26.60;89.70;;;;;;4954225;28;20215;-48
2021/06/27 11:40:13;;;;;;;4.88;2.60;;;26.60;88.40;;;;;;4954656;28;20258;-51
2021/06/27 11:42:52;;;;;;;2.10;2.00;;;26.60;88.10;;;;;;4954492;28;20295;-50
2021/06/27 11:45:43;;;;;;;2.35;2.00;;;26.70;87.60;;;;;;4954202;28;20277;-46
2021/06/27 11:48:12;;;;;;;2.42;2.00;;;26.80;87.70;;;;;;4954333;28;20219;-50
2021/06/27 11:50:47;;;;;;;2.20;2.00;;;26.90;87.60;;;;;;4954404;28;20294;-51
2021/06/27 11:53:15;;;;;;;2.47;1.95;;;27.00;87.40;;;;;;4954408;28;20251;-50
2021/06/27 11:55:45;;;;;;;2.35;2.15;;;27.10;86.50;;;;;;4954238;28;20215;-49
2021/06/27 11:58:23;;;;;;;3.20;1.95;;;27.20;86.00;;;;;;4954034;28;20651;-49
2021/06/27 12:00:52;;;;;;;1.90;1.80;;;27.30;85.20;;;;;;4953943;28;20685;-49
2021/06/27 12:03:22;;;;;;;1.70;1.60;;;27.40;84.70;;;;;;4954322;28;20226;-50
2021/06/27 12:05:52;;;;;;;2.45;2.25;;;27.50;82.90;;;;;;4954014;28;20717;-49
2021/06/27 12:08:22;;;;;;;1.70;1.60;;;27.60;82.60;;;;;;4954141;28;20302;-50
2021/06/27 12:10:52;;;;;;;2.10;1.90;;;27.60;82.50;;;;;;4954057;28;20218;-51
2021/06/27 12:13:25;;;;;;;3.63;2.67;;;27.60;82.20;;;;;;4953916;29;20282;-51
2021/06/27 12:15:54;;;;;;;2.40;2.20;;;27.60;81.80;;;;;;4953907;28;20247;-52
2021/06/27 12:18:25;;;;;;;1.85;1.55;;;27.70;81.90;;;;;;4954005;28;20302;-51
2021/06/27 12:20:54;;;;;;;2.92;2.72;;;27.70;81.50;;;;;;4953792;28;20377;-49
2021/06/27 12:23:28;;;;;;;2.95;2.17;;;27.80;81.30;;;;;;4953866;28;20578;-51
2021/06/27 12:26:00;;;;;;;2.22;2.13;;;27.90;80.80;;;;;;4953883;28;20306;-47
2021/06/27 12:28:35;;;;;;;2.13;2.03;;;27.80;80.90;;;;;;4954171;28;20318;-50
2021/06/27 12:31:11;;;;;;;4.28;3.88;;;27.80;80.30;;;;;;4953940;28;20215;-47
2021/06/27 12:33:40;;;;;;;2.08;1.92;;;27.80;79.70;;;;;;4953714;28;20666;-50
2021/06/27 12:36:11;;;;;;;2.17;2.08;;;27.80;79.60;;;;;;4953534;28;20313;-50
2021/06/27 12:38:40;;;;;;;3.90;3.50;;;27.90;79.80;;;;;;4954137;28;20259;-46
2021/06/27 12:41:10;;;;;;;3.00;1.80;;;28.00;79.70;;;;;;4953621;28;20221;-45
2021/06/27 12:43:42;;;;;;;4.00;3.70;;;28.10;79.20;;;;;;4953780;28;20298;-47
2021/06/27 12:46:23;;;;;;;2.50;2.30;;;28.20;78.80;;;;;;4953885;28;20214;-48
2021/06/27 12:49:05;;;;;;;3.05;2.53;;;28.40;78.20;;;;;;4953599;28;20226;-51
2021/06/27 12:51:35;;;;;;;3.45;3.15;;;28.80;76.60;;;;;;4953682;28;20246;-48
2021/06/27 12:54:09;;;;;;;2.45;2.25;;;29.00;75.30;;;;;;4954368;28;20258;-51
2021/06/27 12:56:49;;;;;;;2.03;1.92;;;29.00;74.50;;;;;;4953681;28;20353;-47
2021/06/27 12:59:21;;;;;;;2.65;2.33;;;29.00;74.50;;;;;;4953721;28;20330;-47
2021/06/27 13:02:04;;;;;;;3.38;2.15;;;28.90;74.80;;;;;;4954388;28;20218;-45